Waterville, Vermont
Current Conditions -  °F | °C
As of 2:54 PM on Monday 22 Dec 2014 (Local Time) from KMVL Reporting Station
Overcast Overcast  
Wind Chill: 33°   Ceiling: 3800
Heat Index: 33°   Visibility: 9mi
Dew Point: 25°   Wind: 0mph
Humidity: 72%   Direction: NA
Pressure: 30.3"   Gusts: NA
Location:  44.69°N, 72.77°W
Report Text: KMVL 221954Z AUTO 00000KT 9SM OVC038 01/M04 A3030 RMK AO2 SLP272 T00061039 TSNO
Loading
Personal Weather Stations






























Interactive Weather Map New forecast layout! Learn more

10-Day Weather Forecast

Advertisements
Track Severe Weather on mobile